sensor_id;sensor_type;location;lat;lon;timestamp;P1;durP1;ratioP1;P2;durP2;ratioP2
23384;SDS011;11865;45.394;10.978;2023-07-24T00:02:05;31.92;;;15.32;;
23384;SDS011;11865;45.394;10.978;2023-07-24T00:04:32;22.77;;;13.13;;
23384;SDS011;11865;45.394;10.978;2023-07-24T00:07:00;31.77;;;13.85;;
23384;SDS011;11865;45.394;10.978;2023-07-24T00:09:28;26.92;;;13.93;;
23384;SDS011;11865;45.394;10.978;2023-07-24T00:11:56;25.77;;;14.20;;
23384;SDS011;11865;45.394;10.978;2023-07-24T00:14:23;25.80;;;14.18;;
23384;SDS011;11865;45.394;10.978;2023-07-24T00:16:51;24.27;;;14.50;;
23384;SDS011;11865;45.394;10.978;2023-07-24T00:19:18;25.40;;;13.65;;
23384;SDS011;11865;45.394;10.978;2023-07-24T00:21:46;29.33;;;14.48;;
23384;SDS011;11865;45.394;10.978;2023-07-24T00:24:13;24.50;;;13.93;;
23384;SDS011;11865;45.394;10.978;2023-07-24T00:26:41;24.35;;;13.25;;
23384;SDS011;11865;45.394;10.978;2023-07-24T00:29:08;22.85;;;12.85;;
23384;SDS011;11865;45.394;10.978;2023-07-24T00:31:36;23.85;;;12.88;;
23384;SDS011;11865;45.394;10.978;2023-07-24T00:34:03;22.73;;;12.55;;
23384;SDS011;11865;45.394;10.978;2023-07-24T00:36:32;23.25;;;12.98;;
23384;SDS011;11865;45.394;10.978;2023-07-24T00:39:01;20.70;;;12.73;;
23384;SDS011;11865;45.394;10.978;2023-07-24T00:41:30;23.42;;;13.85;;
23384;SDS011;11865;45.394;10.978;2023-07-24T00:43:58;24.27;;;13.25;;
23384;SDS011;11865;45.394;10.978;2023-07-24T00:46:27;24.85;;;12.68;;
23384;SDS011;11865;45.394;10.978;2023-07-24T00:49:00;23.27;;;12.65;;
23384;SDS011;11865;45.394;10.978;2023-07-24T00:51:31;25.15;;;12.90;;
23384;SDS011;11865;45.394;10.978;2023-07-24T00:54:00;23.85;;;13.18;;
23384;SDS011;11865;45.394;10.978;2023-07-24T00:56:30;21.30;;;12.13;;
23384;SDS011;11865;45.394;10.978;2023-07-24T00:58:59;24.40;;;13.45;;
23384;SDS011;11865;45.394;10.978;2023-07-24T01:01:28;22.48;;;12.70;;
23384;SDS011;11865;45.394;10.978;2023-07-24T01:03:56;26.92;;;13.45;;
23384;SDS011;11865;45.394;10.978;2023-07-24T01:06:25;27.65;;;12.70;;
23384;SDS011;11865;45.394;10.978;2023-07-24T01:08:52;25.63;;;14.05;;
23384;SDS011;11865;45.394;10.978;2023-07-24T01:11:27;23.13;;;13.15;;
23384;SDS011;11865;45.394;10.978;2023-07-24T01:14:36;22.02;;;11.90;;
23384;SDS011;11865;45.394;10.978;2023-07-24T01:17:02;26.58;;;12.90;;
23384;SDS011;11865;45.394;10.978;2023-07-24T01:19:40;24.60;;;12.18;;
23384;SDS011;11865;45.394;10.978;2023-07-24T01:22:14;23.05;;;12.88;;
23384;SDS011;11865;45.394;10.978;2023-07-24T01:27:42;22.67;;;13.50;;
23384;SDS011;11865;45.394;10.978;2023-07-24T01:30:11;22.25;;;12.70;;
23384;SDS011;11865;45.394;10.978;2023-07-24T01:32:39;25.73;;;13.27;;
23384;SDS011;11865;45.394;10.978;2023-07-24T01:35:08;24.02;;;13.20;;
23384;SDS011;11865;45.394;10.978;2023-07-24T01:37:35;25.48;;;13.27;;
23384;SDS011;11865;45.394;10.978;2023-07-24T01:40:06;29.85;;;13.85;;
23384;SDS011;11865;45.394;10.978;2023-07-24T01:42:35;24.45;;;12.38;;
23384;SDS011;11865;45.394;10.978;2023-07-24T01:45:03;23.80;;;12.55;;
23384;SDS011;11865;45.394;10.978;2023-07-24T01:47:31;23.20;;;13.38;;
23384;SDS011;11865;45.394;10.978;2023-07-24T01:49:59;21.30;;;12.88;;
23384;SDS011;11865;45.394;10.978;2023-07-24T01:52:27;23.33;;;12.55;;
23384;SDS011;11865;45.394;10.978;2023-07-24T01:54:54;22.65;;;12.20;;
23384;SDS011;11865;45.394;10.978;2023-07-24T01:57:22;22.48;;;12.32;;
23384;SDS011;11865;45.394;10.978;2023-07-24T01:59:49;23.60;;;12.93;;
23384;SDS011;11865;45.394;10.978;2023-07-24T02:02:17;22.77;;;12.75;;
23384;SDS011;11865;45.394;10.978;2023-07-24T02:04:45;23.55;;;13.23;;
23384;SDS011;11865;45.394;10.978;2023-07-24T02:07:13;23.70;;;13.15;;
23384;SDS011;11865;45.394;10.978;2023-07-24T02:09:41;26.65;;;12.75;;
23384;SDS011;11865;45.394;10.978;2023-07-24T02:12:08;25.20;;;13.75;;
23384;SDS011;11865;45.394;10.978;2023-07-24T02:14:36;22.75;;;13.07;;
23384;SDS011;11865;45.394;10.978;2023-07-24T02:17:03;22.80;;;12.35;;
23384;SDS011;11865;45.394;10.978;2023-07-24T02:19:31;22.90;;;13.48;;
23384;SDS011;11865;45.394;10.978;2023-07-24T02:21:59;24.95;;;13.90;;
23384;SDS011;11865;45.394;10.978;2023-07-24T02:24:26;24.42;;;14.25;;
23384;SDS011;11865;45.394;10.978;2023-07-24T02:26:54;22.08;;;13.07;;
23384;SDS011;11865;45.394;10.978;2023-07-24T02:29:22;21.30;;;13.30;;
23384;SDS011;11865;45.394;10.978;2023-07-24T02:31:50;24.77;;;12.85;;
23384;SDS011;11865;45.394;10.978;2023-07-24T02:34:18;25.50;;;13.27;;
23384;SDS011;11865;45.394;10.978;2023-07-24T02:36:45;23.90;;;13.70;;
23384;SDS011;11865;45.394;10.978;2023-07-24T02:39:13;26.10;;;13.00;;
23384;SDS011;11865;45.394;10.978;2023-07-24T02:41:40;26.20;;;14.18;;
23384;SDS011;11865;45.394;10.978;2023-07-24T02:44:08;24.50;;;13.32;;
23384;SDS011;11865;45.394;10.978;2023-07-24T02:46:35;23.55;;;13.15;;
23384;SDS011;11865;45.394;10.978;2023-07-24T02:49:03;25.63;;;13.40;;
23384;SDS011;11865;45.394;10.978;2023-07-24T02:51:31;24.23;;;14.23;;
23384;SDS011;11865;45.394;10.978;2023-07-24T02:53:59;20.80;;;12.75;;
23384;SDS011;11865;45.394;10.978;2023-07-24T02:56:26;24.33;;;12.52;;
23384;SDS011;11865;45.394;10.978;2023-07-24T02:58:55;23.27;;;12.50;;
23384;SDS011;11865;45.394;10.978;2023-07-24T03:01:22;22.75;;;13.10;;
23384;SDS011;11865;45.394;10.978;2023-07-24T03:03:50;24.35;;;13.60;;
23384;SDS011;11865;45.394;10.978;2023-07-24T03:06:17;27.38;;;13.32;;
23384;SDS011;11865;45.394;10.978;2023-07-24T03:08:45;25.90;;;13.70;;
23384;SDS011;11865;45.394;10.978;2023-07-24T03:11:12;24.98;;;12.93;;
23384;SDS011;11865;45.394;10.978;2023-07-24T03:13:40;24.88;;;12.82;;
23384;SDS011;11865;45.394;10.978;2023-07-24T03:16:09;24.17;;;12.43;;
23384;SDS011;11865;45.394;10.978;2023-07-24T03:18:36;21.55;;;12.55;;
23384;SDS011;11865;45.394;10.978;2023-07-24T03:21:04;22.75;;;13.15;;
23384;SDS011;11865;45.394;10.978;2023-07-24T03:23:31;24.20;;;12.43;;
23384;SDS011;11865;45.394;10.978;2023-07-24T03:25:59;23.17;;;13.25;;
23384;SDS011;11865;45.394;10.978;2023-07-24T03:28:27;24.25;;;12.50;;
23384;SDS011;11865;45.394;10.978;2023-07-24T03:30:54;22.67;;;13.30;;
23384;SDS011;11865;45.394;10.978;2023-07-24T03:33:22;22.23;;;12.40;;
23384;SDS011;11865;45.394;10.978;2023-07-24T03:35:50;24.67;;;12.77;;
23384;SDS011;11865;45.394;10.978;2023-07-24T03:38:18;22.38;;;12.60;;
23384;SDS011;11865;45.394;10.978;2023-07-24T03:40:45;23.15;;;13.18;;
23384;SDS011;11865;45.394;10.978;2023-07-24T03:43:14;24.08;;;13.25;;
23384;SDS011;11865;45.394;10.978;2023-07-24T03:45:42;24.85;;;13.60;;
23384;SDS011;11865;45.394;10.978;2023-07-24T03:48:10;27.95;;;14.18;;
23384;SDS011;11865;45.394;10.978;2023-07-24T03:50:40;27.00;;;14.35;;
23384;SDS011;11865;45.394;10.978;2023-07-24T03:53:08;22.42;;;13.60;;
23384;SDS011;11865;45.394;10.978;2023-07-24T03:55:35;22.75;;;13.55;;
23384;SDS011;11865;45.394;10.978;2023-07-24T03:58:03;24.13;;;13.65;;
23384;SDS011;11865;45.394;10.978;2023-07-24T04:00:30;31.95;;;15.02;;
23384;SDS011;11865;45.394;10.978;2023-07-24T04:02:58;25.70;;;14.52;;
23384;SDS011;11865;45.394;10.978;2023-07-24T04:05:25;27.90;;;15.43;;
23384;SDS011;11865;45.394;10.978;2023-07-24T04:07:54;29.48;;;14.07;;
23384;SDS011;11865;45.394;10.978;2023-07-24T04:10:22;29.50;;;14.40;;
23384;SDS011;11865;45.394;10.978;2023-07-24T04:12:49;26.73;;;14.93;;
23384;SDS011;11865;45.394;10.978;2023-07-24T04:15:17;29.63;;;15.18;;
23384;SDS011;11865;45.394;10.978;2023-07-24T04:17:45;33.38;;;15.70;;
23384;SDS011;11865;45.394;10.978;2023-07-24T04:20:12;27.55;;;15.63;;
23384;SDS011;11865;45.394;10.978;2023-07-24T04:22:40;29.52;;;15.27;;
23384;SDS011;11865;45.394;10.978;2023-07-24T04:25:08;31.15;;;14.60;;
23384;SDS011;11865;45.394;10.978;2023-07-24T04:27:35;28.60;;;15.30;;
23384;SDS011;11865;45.394;10.978;2023-07-24T04:30:03;36.53;;;15.75;;
23384;SDS011;11865;45.394;10.978;2023-07-24T04:32:31;28.27;;;15.40;;
23384;SDS011;11865;45.394;10.978;2023-07-24T04:34:59;35.60;;;15.73;;
23384;SDS011;11865;45.394;10.978;2023-07-24T04:37:26;39.53;;;16.40;;
23384;SDS011;11865;45.394;10.978;2023-07-24T04:39:53;31.55;;;15.73;;
23384;SDS011;11865;45.394;10.978;2023-07-24T04:42:21;29.23;;;15.05;;
23384;SDS011;11865;45.394;10.978;2023-07-24T04:44:48;23.80;;;14.38;;
23384;SDS011;11865;45.394;10.978;2023-07-24T04:47:17;27.27;;;14.65;;
23384;SDS011;11865;45.394;10.978;2023-07-24T04:49:45;26.50;;;15.02;;
23384;SDS011;11865;45.394;10.978;2023-07-24T04:52:12;32.28;;;15.65;;
23384;SDS011;11865;45.394;10.978;2023-07-24T04:54:40;29.73;;;16.23;;
23384;SDS011;11865;45.394;10.978;2023-07-24T04:57:07;29.52;;;15.63;;
23384;SDS011;11865;45.394;10.978;2023-07-24T04:59:35;27.50;;;15.57;;
23384;SDS011;11865;45.394;10.978;2023-07-24T05:02:03;33.60;;;17.00;;
23384;SDS011;11865;45.394;10.978;2023-07-24T05:04:31;36.10;;;15.55;;
23384;SDS011;11865;45.394;10.978;2023-07-24T05:06:58;31.80;;;17.23;;
23384;SDS011;11865;45.394;10.978;2023-07-24T05:09:26;34.63;;;16.08;;
23384;SDS011;11865;45.394;10.978;2023-07-24T05:11:53;29.38;;;16.45;;
23384;SDS011;11865;45.394;10.978;2023-07-24T05:14:21;29.30;;;16.52;;
23384;SDS011;11865;45.394;10.978;2023-07-24T05:16:48;31.38;;;16.77;;
23384;SDS011;11865;45.394;10.978;2023-07-24T05:19:16;28.98;;;17.02;;
23384;SDS011;11865;45.394;10.978;2023-07-24T05:21:44;25.95;;;14.98;;
23384;SDS011;11865;45.394;10.978;2023-07-24T05:24:11;32.15;;;17.13;;
23384;SDS011;11865;45.394;10.978;2023-07-24T05:26:39;27.90;;;16.50;;
23384;SDS011;11865;45.394;10.978;2023-07-24T05:29:06;31.45;;;16.58;;
23384;SDS011;11865;45.394;10.978;2023-07-24T05:31:34;30.83;;;16.55;;
23384;SDS011;11865;45.394;10.978;2023-07-24T05:34:02;33.20;;;17.90;;
23384;SDS011;11865;45.394;10.978;2023-07-24T05:36:30;38.60;;;18.90;;
23384;SDS011;11865;45.394;10.978;2023-07-24T05:38:58;33.50;;;17.88;;
23384;SDS011;11865;45.394;10.978;2023-07-24T05:41:26;33.03;;;17.02;;
23384;SDS011;11865;45.394;10.978;2023-07-24T05:43:53;32.17;;;16.63;;
23384;SDS011;11865;45.394;10.978;2023-07-24T05:46:22;28.63;;;16.52;;
23384;SDS011;11865;45.394;10.978;2023-07-24T05:48:50;25.08;;;15.38;;
23384;SDS011;11865;45.394;10.978;2023-07-24T05:51:17;30.42;;;14.75;;
23384;SDS011;11865;45.394;10.978;2023-07-24T05:53:45;27.35;;;14.40;;
23384;SDS011;11865;45.394;10.978;2023-07-24T05:56:13;27.70;;;14.63;;
23384;SDS011;11865;45.394;10.978;2023-07-24T05:58:40;26.73;;;15.75;;
23384;SDS011;11865;45.394;10.978;2023-07-24T06:01:08;26.02;;;15.05;;
23384;SDS011;11865;45.394;10.978;2023-07-24T06:03:37;25.73;;;13.45;;
23384;SDS011;11865;45.394;10.978;2023-07-24T06:06:05;25.90;;;14.38;;
23384;SDS011;11865;45.394;10.978;2023-07-24T06:08:33;27.42;;;14.07;;
23384;SDS011;11865;45.394;10.978;2023-07-24T06:11:01;30.83;;;14.50;;
23384;SDS011;11865;45.394;10.978;2023-07-24T06:13:28;23.50;;;13.02;;
23384;SDS011;11865;45.394;10.978;2023-07-24T06:15:56;21.13;;;12.90;;
23384;SDS011;11865;45.394;10.978;2023-07-24T06:18:23;26.35;;;13.00;;
23384;SDS011;11865;45.394;10.978;2023-07-24T06:20:54;21.52;;;12.60;;
23384;SDS011;11865;45.394;10.978;2023-07-24T06:23:21;25.27;;;12.75;;
23384;SDS011;11865;45.394;10.978;2023-07-24T06:25:49;23.55;;;13.60;;
23384;SDS011;11865;45.394;10.978;2023-07-24T06:28:18;23.70;;;13.93;;
23384;SDS011;11865;45.394;10.978;2023-07-24T06:30:46;27.15;;;13.77;;
23384;SDS011;11865;45.394;10.978;2023-07-24T06:33:13;24.83;;;12.70;;
23384;SDS011;11865;45.394;10.978;2023-07-24T06:35:41;21.13;;;12.38;;
23384;SDS011;11865;45.394;10.978;2023-07-24T06:38:08;21.83;;;12.63;;
23384;SDS011;11865;45.394;10.978;2023-07-24T06:40:36;23.67;;;11.48;;
23384;SDS011;11865;45.394;10.978;2023-07-24T06:43:03;25.15;;;11.68;;
23384;SDS011;11865;45.394;10.978;2023-07-24T06:45:31;21.45;;;12.05;;
23384;SDS011;11865;45.394;10.978;2023-07-24T06:47:58;21.63;;;11.80;;
23384;SDS011;11865;45.394;10.978;2023-07-24T06:50:26;20.83;;;10.75;;
23384;SDS011;11865;45.394;10.978;2023-07-24T06:52:54;17.67;;;10.43;;
23384;SDS011;11865;45.394;10.978;2023-07-24T06:55:21;17.60;;;10.52;;
23384;SDS011;11865;45.394;10.978;2023-07-24T06:57:49;17.73;;;11.00;;
23384;SDS011;11865;45.394;10.978;2023-07-24T07:00:16;20.85;;;11.38;;
23384;SDS011;11865;45.394;10.978;2023-07-24T07:02:44;21.80;;;11.68;;
23384;SDS011;11865;45.394;10.978;2023-07-24T07:05:12;17.33;;;11.23;;
23384;SDS011;11865;45.394;10.978;2023-07-24T07:07:39;19.20;;;10.85;;
23384;SDS011;11865;45.394;10.978;2023-07-24T07:10:07;23.27;;;11.85;;
23384;SDS011;11865;45.394;10.978;2023-07-24T07:12:34;17.02;;;10.82;;
23384;SDS011;11865;45.394;10.978;2023-07-24T07:15:02;20.23;;;10.30;;
23384;SDS011;11865;45.394;10.978;2023-07-24T07:17:30;17.38;;;10.95;;
23384;SDS011;11865;45.394;10.978;2023-07-24T07:19:57;17.60;;;9.85;;
23384;SDS011;11865;45.394;10.978;2023-07-24T07:22:25;17.98;;;9.73;;
23384;SDS011;11865;45.394;10.978;2023-07-24T07:24:53;20.35;;;11.57;;
23384;SDS011;11865;45.394;10.978;2023-07-24T07:27:20;17.10;;;9.85;;
23384;SDS011;11865;45.394;10.978;2023-07-24T07:29:48;18.50;;;9.57;;
23384;SDS011;11865;45.394;10.978;2023-07-24T07:32:15;21.42;;;10.98;;
23384;SDS011;11865;45.394;10.978;2023-07-24T07:34:43;16.60;;;9.48;;
23384;SDS011;11865;45.394;10.978;2023-07-24T07:37:11;18.73;;;9.43;;
23384;SDS011;11865;45.394;10.978;2023-07-24T07:39:38;18.05;;;10.20;;
23384;SDS011;11865;45.394;10.978;2023-07-24T07:42:06;15.00;;;8.65;;
23384;SDS011;11865;45.394;10.978;2023-07-24T07:44:45;12.25;;;8.50;;
23384;SDS011;11865;45.394;10.978;2023-07-24T07:47:13;13.95;;;8.48;;
23384;SDS011;11865;45.394;10.978;2023-07-24T07:49:40;14.65;;;8.57;;
23384;SDS011;11865;45.394;10.978;2023-07-24T07:52:08;17.35;;;8.63;;
23384;SDS011;11865;45.394;10.978;2023-07-24T07:54:36;15.27;;;8.43;;
23384;SDS011;11865;45.394;10.978;2023-07-24T07:57:04;19.00;;;9.75;;
23384;SDS011;11865;45.394;10.978;2023-07-24T07:59:31;18.95;;;9.60;;
23384;SDS011;11865;45.394;10.978;2023-07-24T08:02:00;16.65;;;9.60;;
23384;SDS011;11865;45.394;10.978;2023-07-24T08:04:28;21.33;;;9.38;;
23384;SDS011;11865;45.394;10.978;2023-07-24T08:06:56;21.55;;;9.80;;
23384;SDS011;11865;45.394;10.978;2023-07-24T08:09:26;14.85;;;8.73;;
23384;SDS011;11865;45.394;10.978;2023-07-24T08:11:55;15.45;;;9.00;;
23384;SDS011;11865;45.394;10.978;2023-07-24T08:14:22;17.92;;;10.40;;
23384;SDS011;11865;45.394;10.978;2023-07-24T08:16:50;18.02;;;10.00;;
23384;SDS011;11865;45.394;10.978;2023-07-24T08:19:18;15.48;;;9.88;;
23384;SDS011;11865;45.394;10.978;2023-07-24T08:21:46;18.85;;;9.88;;
23384;SDS011;11865;45.394;10.978;2023-07-24T08:24:14;22.27;;;10.05;;
23384;SDS011;11865;45.394;10.978;2023-07-24T08:26:41;21.02;;;9.10;;
23384;SDS011;11865;45.394;10.978;2023-07-24T08:29:09;20.48;;;9.27;;
23384;SDS011;11865;45.394;10.978;2023-07-24T08:31:37;21.20;;;10.60;;
23384;SDS011;11865;45.394;10.978;2023-07-24T08:34:08;15.70;;;9.68;;
23384;SDS011;11865;45.394;10.978;2023-07-24T08:36:36;16.25;;;8.75;;
23384;SDS011;11865;45.394;10.978;2023-07-24T08:39:04;13.00;;;8.40;;
23384;SDS011;11865;45.394;10.978;2023-07-24T08:41:32;18.00;;;9.20;;
23384;SDS011;11865;45.394;10.978;2023-07-24T08:44:01;18.42;;;9.13;;
23384;SDS011;11865;45.394;10.978;2023-07-24T08:46:29;15.10;;;8.73;;
23384;SDS011;11865;45.394;10.978;2023-07-24T08:48:57;17.23;;;9.10;;
23384;SDS011;11865;45.394;10.978;2023-07-24T08:51:25;13.32;;;8.90;;
23384;SDS011;11865;45.394;10.978;2023-07-24T08:53:52;15.00;;;8.70;;
23384;SDS011;11865;45.394;10.978;2023-07-24T08:56:20;15.80;;;8.45;;
23384;SDS011;11865;45.394;10.978;2023-07-24T08:58:48;16.15;;;8.07;;
23384;SDS011;11865;45.394;10.978;2023-07-24T09:01:16;17.75;;;9.48;;
23384;SDS011;11865;45.394;10.978;2023-07-24T09:03:43;19.10;;;9.20;;
23384;SDS011;11865;45.394;10.978;2023-07-24T09:06:11;17.95;;;9.20;;
23384;SDS011;11865;45.394;10.978;2023-07-24T09:08:43;11.63;;;7.97;;
23384;SDS011;11865;45.394;10.978;2023-07-24T09:11:13;14.32;;;8.65;;
23384;SDS011;11865;45.394;10.978;2023-07-24T09:13:42;18.27;;;9.88;;
23384;SDS011;11865;45.394;10.978;2023-07-24T09:16:20;17.10;;;8.13;;
23384;SDS011;11865;45.394;10.978;2023-07-24T09:18:50;14.95;;;8.95;;
23384;SDS011;11865;45.394;10.978;2023-07-24T09:21:36;15.60;;;8.73;;
23384;SDS011;11865;45.394;10.978;2023-07-24T09:24:12;16.77;;;9.18;;
23384;SDS011;11865;45.394;10.978;2023-07-24T09:26:48;14.93;;;8.95;;
23384;SDS011;11865;45.394;10.978;2023-07-24T09:29:16;13.85;;;8.10;;
23384;SDS011;11865;45.394;10.978;2023-07-24T09:31:45;13.32;;;8.40;;
23384;SDS011;11865;45.394;10.978;2023-07-24T09:34:16;15.77;;;9.43;;
23384;SDS011;11865;45.394;10.978;2023-07-24T09:36:45;12.65;;;8.07;;
23384;SDS011;11865;45.394;10.978;2023-07-24T09:39:12;19.05;;;9.27;;
23384;SDS011;11865;45.394;10.978;2023-07-24T09:41:40;15.13;;;9.13;;
23384;SDS011;11865;45.394;10.978;2023-07-24T09:44:07;14.13;;;8.93;;
23384;SDS011;11865;45.394;10.978;2023-07-24T09:46:38;12.65;;;8.38;;
23384;SDS011;11865;45.394;10.978;2023-07-24T09:49:09;13.02;;;8.50;;
23384;SDS011;11865;45.394;10.978;2023-07-24T09:51:37;13.40;;;7.78;;
23384;SDS011;11865;45.394;10.978;2023-07-24T09:56:36;14.27;;;8.13;;
23384;SDS011;11865;45.394;10.978;2023-07-24T09:59:19;15.85;;;8.68;;
23384;SDS011;11865;45.394;10.978;2023-07-24T10:01:48;15.32;;;9.23;;
23384;SDS011;11865;45.394;10.978;2023-07-24T10:04:16;15.57;;;8.50;;
23384;SDS011;11865;45.394;10.978;2023-07-24T10:06:44;15.43;;;8.95;;
23384;SDS011;11865;45.394;10.978;2023-07-24T10:09:13;18.02;;;10.55;;
23384;SDS011;11865;45.394;10.978;2023-07-24T10:11:41;18.95;;;9.05;;
23384;SDS011;11865;45.394;10.978;2023-07-24T10:14:08;17.48;;;8.98;;
23384;SDS011;11865;45.394;10.978;2023-07-24T10:16:37;15.68;;;8.80;;
23384;SDS011;11865;45.394;10.978;2023-07-24T10:19:12;20.45;;;9.32;;
23384;SDS011;11865;45.394;10.978;2023-07-24T10:21:49;18.02;;;7.68;;
23384;SDS011;11865;45.394;10.978;2023-07-24T10:24:18;17.45;;;8.40;;
23384;SDS011;11865;45.394;10.978;2023-07-24T10:27:07;16.00;;;8.40;;
23384;SDS011;11865;45.394;10.978;2023-07-24T10:29:35;13.25;;;8.52;;
23384;SDS011;11865;45.394;10.978;2023-07-24T10:32:04;14.20;;;8.15;;
23384;SDS011;11865;45.394;10.978;2023-07-24T10:34:44;18.85;;;9.27;;
23384;SDS011;11865;45.394;10.978;2023-07-24T10:37:11;16.38;;;8.93;;
23384;SDS011;11865;45.394;10.978;2023-07-24T10:39:39;14.52;;;8.93;;
23384;SDS011;11865;45.394;10.978;2023-07-24T10:42:08;19.63;;;9.25;;
23384;SDS011;11865;45.394;10.978;2023-07-24T10:44:37;16.77;;;9.13;;
23384;SDS011;11865;45.394;10.978;2023-07-24T10:47:05;11.90;;;8.13;;
23384;SDS011;11865;45.394;10.978;2023-07-24T10:49:33;14.65;;;8.85;;
23384;SDS011;11865;45.394;10.978;2023-07-24T10:52:01;16.38;;;9.10;;
23384;SDS011;11865;45.394;10.978;2023-07-24T10:54:28;15.25;;;8.55;;
23384;SDS011;11865;45.394;10.978;2023-07-24T10:56:59;16.98;;;8.85;;
23384;SDS011;11865;45.394;10.978;2023-07-24T10:59:37;16.48;;;8.63;;
23384;SDS011;11865;45.394;10.978;2023-07-24T11:02:06;18.67;;;8.82;;
23384;SDS011;11865;45.394;10.978;2023-07-24T11:04:34;16.38;;;9.18;;
23384;SDS011;11865;45.394;10.978;2023-07-24T11:07:02;15.85;;;8.13;;
23384;SDS011;11865;45.394;10.978;2023-07-24T11:09:36;18.20;;;9.27;;
23384;SDS011;11865;45.394;10.978;2023-07-24T11:12:09;15.50;;;8.52;;
23384;SDS011;11865;45.394;10.978;2023-07-24T11:14:47;14.88;;;8.38;;
23384;SDS011;11865;45.394;10.978;2023-07-24T11:17:14;15.82;;;8.55;;
23384;SDS011;11865;45.394;10.978;2023-07-24T11:19:42;14.95;;;9.15;;
23384;SDS011;11865;45.394;10.978;2023-07-24T11:22:09;15.57;;;8.77;;
23384;SDS011;11865;45.394;10.978;2023-07-24T11:24:46;14.80;;;8.27;;
23384;SDS011;11865;45.394;10.978;2023-07-24T11:27:15;15.23;;;9.07;;
23384;SDS011;11865;45.394;10.978;2023-07-24T11:29:47;17.92;;;9.68;;
23384;SDS011;11865;45.394;10.978;2023-07-24T11:32:19;17.80;;;9.65;;
23384;SDS011;11865;45.394;10.978;2023-07-24T11:34:48;17.73;;;9.57;;
23384;SDS011;11865;45.394;10.978;2023-07-24T11:37:16;18.42;;;9.43;;
23384;SDS011;11865;45.394;10.978;2023-07-24T11:39:59;18.55;;;8.77;;
23384;SDS011;11865;45.394;10.978;2023-07-24T11:42:38;17.42;;;10.30;;
23384;SDS011;11865;45.394;10.978;2023-07-24T11:45:07;18.42;;;10.23;;
23384;SDS011;11865;45.394;10.978;2023-07-24T11:47:43;12.68;;;8.40;;
23384;SDS011;11865;45.394;10.978;2023-07-24T11:50:16;17.40;;;8.90;;
23384;SDS011;11865;45.394;10.978;2023-07-24T11:52:45;15.18;;;9.02;;
23384;SDS011;11865;45.394;10.978;2023-07-24T11:55:15;16.33;;;8.73;;
23384;SDS011;11865;45.394;10.978;2023-07-24T11:57:57;16.17;;;8.32;;
23384;SDS011;11865;45.394;10.978;2023-07-24T12:00:28;15.18;;;8.75;;
23384;SDS011;11865;45.394;10.978;2023-07-24T12:03:03;13.32;;;8.50;;
23384;SDS011;11865;45.394;10.978;2023-07-24T12:05:41;20.45;;;8.48;;
23384;SDS011;11865;45.394;10.978;2023-07-24T12:08:12;16.40;;;8.45;;
23384;SDS011;11865;45.394;10.978;2023-07-24T12:10:41;11.43;;;7.72;;
23384;SDS011;11865;45.394;10.978;2023-07-24T12:13:08;16.58;;;8.82;;
23384;SDS011;11865;45.394;10.978;2023-07-24T12:15:36;12.52;;;8.45;;
23384;SDS011;11865;45.394;10.978;2023-07-24T12:18:04;14.70;;;8.32;;
23384;SDS011;11865;45.394;10.978;2023-07-24T12:20:33;20.05;;;9.85;;
23384;SDS011;11865;45.394;10.978;2023-07-24T12:23:01;15.13;;;8.55;;
23384;SDS011;11865;45.394;10.978;2023-07-24T12:25:29;13.93;;;7.47;;
23384;SDS011;11865;45.394;10.978;2023-07-24T12:27:57;15.43;;;8.05;;
23384;SDS011;11865;45.394;10.978;2023-07-24T12:30:25;14.45;;;9.05;;
23384;SDS011;11865;45.394;10.978;2023-07-24T12:32:52;17.42;;;9.88;;
23384;SDS011;11865;45.394;10.978;2023-07-24T12:35:20;18.83;;;9.82;;
23384;SDS011;11865;45.394;10.978;2023-07-24T12:37:47;18.00;;;9.88;;
23384;SDS011;11865;45.394;10.978;2023-07-24T12:40:15;17.60;;;10.68;;
23384;SDS011;11865;45.394;10.978;2023-07-24T12:42:42;20.45;;;10.95;;
23384;SDS011;11865;45.394;10.978;2023-07-24T12:45:10;15.48;;;9.70;;
23384;SDS011;11865;45.394;10.978;2023-07-24T12:47:37;19.58;;;9.88;;
23384;SDS011;11865;45.394;10.978;2023-07-24T12:50:05;20.23;;;11.02;;
23384;SDS011;11865;45.394;10.978;2023-07-24T12:52:34;16.10;;;10.35;;
23384;SDS011;11865;45.394;10.978;2023-07-24T12:55:01;16.75;;;9.48;;
23384;SDS011;11865;45.394;10.978;2023-07-24T12:57:29;16.60;;;9.73;;
23384;SDS011;11865;45.394;10.978;2023-07-24T12:59:57;18.48;;;10.85;;
23384;SDS011;11865;45.394;10.978;2023-07-24T13:02:24;18.70;;;10.60;;
23384;SDS011;11865;45.394;10.978;2023-07-24T13:04:52;17.40;;;10.23;;
23384;SDS011;11865;45.394;10.978;2023-07-24T13:07:19;20.42;;;10.07;;
23384;SDS011;11865;45.394;10.978;2023-07-24T13:09:47;17.45;;;9.48;;
23384;SDS011;11865;45.394;10.978;2023-07-24T13:12:14;18.98;;;10.55;;
23384;SDS011;11865;45.394;10.978;2023-07-24T13:14:42;25.20;;;12.02;;
23384;SDS011;11865;45.394;10.978;2023-07-24T13:17:09;20.58;;;9.82;;
23384;SDS011;11865;45.394;10.978;2023-07-24T13:19:37;14.90;;;8.95;;
23384;SDS011;11865;45.394;10.978;2023-07-24T13:22:05;14.90;;;8.88;;
23384;SDS011;11865;45.394;10.978;2023-07-24T13:24:33;17.48;;;9.32;;
23384;SDS011;11865;45.394;10.978;2023-07-24T13:27:00;15.38;;;8.52;;
23384;SDS011;11865;45.394;10.978;2023-07-24T13:29:29;13.48;;;9.07;;
23384;SDS011;11865;45.394;10.978;2023-07-24T13:31:57;13.32;;;8.60;;
23384;SDS011;11865;45.394;10.978;2023-07-24T13:34:25;11.00;;;7.90;;
23384;SDS011;11865;45.394;10.978;2023-07-24T13:36:52;14.57;;;9.38;;
23384;SDS011;11865;45.394;10.978;2023-07-24T13:39:20;14.95;;;8.85;;
23384;SDS011;11865;45.394;10.978;2023-07-24T13:41:48;17.17;;;9.07;;
23384;SDS011;11865;45.394;10.978;2023-07-24T13:44:15;16.77;;;8.30;;
23384;SDS011;11865;45.394;10.978;2023-07-24T13:46:43;15.07;;;9.68;;
23384;SDS011;11865;45.394;10.978;2023-07-24T13:49:10;15.20;;;8.68;;
23384;SDS011;11865;45.394;10.978;2023-07-24T13:51:38;13.68;;;8.85;;
23384;SDS011;11865;45.394;10.978;2023-07-24T13:54:06;17.92;;;10.88;;
23384;SDS011;11865;45.394;10.978;2023-07-24T13:56:33;18.45;;;11.32;;
23384;SDS011;11865;45.394;10.978;2023-07-24T13:59:02;20.50;;;11.25;;
23384;SDS011;11865;45.394;10.978;2023-07-24T14:01:30;18.20;;;11.73;;
23384;SDS011;11865;45.394;10.978;2023-07-24T14:03:58;19.90;;;10.05;;
23384;SDS011;11865;45.394;10.978;2023-07-24T14:06:27;20.98;;;9.00;;
23384;SDS011;11865;45.394;10.978;2023-07-24T14:08:55;15.05;;;8.80;;
23384;SDS011;11865;45.394;10.978;2023-07-24T14:11:22;14.35;;;7.40;;
23384;SDS011;11865;45.394;10.978;2023-07-24T14:13:51;17.88;;;7.70;;
23384;SDS011;11865;45.394;10.978;2023-07-24T14:16:19;11.55;;;6.70;;
23384;SDS011;11865;45.394;10.978;2023-07-24T14:18:46;13.75;;;6.40;;
23384;SDS011;11865;45.394;10.978;2023-07-24T14:21:14;15.60;;;6.70;;
23384;SDS011;11865;45.394;10.978;2023-07-24T14:23:42;13.85;;;6.57;;
23384;SDS011;11865;45.394;10.978;2023-07-24T14:26:09;15.18;;;7.53;;
23384;SDS011;11865;45.394;10.978;2023-07-24T14:28:37;14.23;;;6.30;;